Time,TemperatureF,DewpointF,PressureIn,WindDirection,WindDirectionDegrees,WindSpeedMPH,WindSpeedGustMPH,Humidity,HourlyPrecipIn,Conditions,Clouds,dailyrainin,SoftwareType,DateUTC
2013-06-25 00:01:00,74.5,73.0,30.04,SSW,205,0.0,0.0,95,0.00,,---,0.00,VWS V14.01,2013-06-25 05:01:00,
2013-06-25 00:06:00,74.5,73.0,30.04,SSW,205,0.0,0.0,95,0.00,,---,0.00,VWS V14.01,2013-06-25 05:06:00,
2013-06-25 00:11:00,74.4,72.9,30.04,SSW,205,0.0,0.0,95,0.00,,---,0.00,VWS V14.01,2013-06-25 05:11:00,
2013-06-25 00:16:00,74.3,72.8,30.05,SSW,205,0.0,0.0,95,0.00,,---,0.00,VWS V14.01,2013-06-25 05:16:00,
2013-06-25 00:21:00,74.3,72.8,30.04,SSW,205,0.0,0.0,95,0.00,,---,0.00,VWS V14.01,2013-06-25 05:21:00,
2013-06-25 00:26:00,74.3,72.8,30.04,SSW,205,0.0,0.0,95,0.00,,---,0.00,VWS V14.01,2013-06-25 05:26:00,
2013-06-25 00:31:00,74.2,72.7,30.04,SSW,205,0.0,0.0,95,0.00,,---,0.00,VWS V14.01,2013-06-25 05:31:00,
2013-06-25 00:36:00,74.2,72.7,30.04,SSW,205,0.0,0.0,95,0.00,,---,0.00,VWS V14.01,2013-06-25 05:36:00,
2013-06-25 00:41:00,74.1,72.6,30.04,SSW,205,0.0,0.0,95,0.00,,---,0.00,VWS V14.01,2013-06-25 05:41:00,
2013-06-25 00:46:00,73.9,72.4,30.04,SSW,205,0.0,0.0,95,0.00,,---,0.00,VWS V14.01,2013-06-25 05:46:00,
2013-06-25 00:51:00,73.9,72.4,30.04,SSW,205,0.0,0.0,95,0.00,,---,0.00,VWS V14.01,2013-06-25 05:51:00,
2013-06-25 00:56:00,73.9,72.4,30.03,SSW,205,0.0,0.0,95,0.00,,---,0.00,VWS V14.01,2013-06-25 05:56:00,
2013-06-25 01:01:00,73.9,72.4,30.03,SSW,205,0.0,0.0,95,0.00,,---,0.00,VWS V14.01,2013-06-25 06:01:00,
2013-06-25 01:06:00,73.9,72.4,30.03,SSW,205,0.0,0.0,95,0.00,,---,0.00,VWS V14.01,2013-06-25 06:06:00,
2013-06-25 01:11:00,73.8,72.3,30.03,SSW,205,0.0,0.0,95,0.00,,---,0.00,VWS V14.01,2013-06-25 06:11:00,
2013-06-25 01:16:00,73.8,72.3,30.03,SSW,205,0.0,0.0,95,0.00,,---,0.00,VWS V14.01,2013-06-25 06:16:00,
2013-06-25 01:21:00,73.8,72.3,30.03,SSW,205,0.0,0.0,95,0.00,,---,0.00,VWS V14.01,2013-06-25 06:21:00,
2013-06-25 01:26:00,73.7,72.2,30.03,SSW,205,0.0,0.0,95,0.00,,---,0.00,VWS V14.01,2013-06-25 06:26:00,
2013-06-25 01:31:00,73.7,72.2,30.03,SSW,205,0.0,0.0,95,0.00,,---,0.00,VWS V14.01,2013-06-25 06:31:00,
2013-06-25 01:36:00,73.7,72.2,30.03,SSW,205,0.0,0.0,95,0.00,,---,0.00,VWS V14.01,2013-06-25 06:36:00,
2013-06-25 01:41:00,73.7,72.2,30.03,SSW,205,0.0,0.0,95,0.00,,---,0.00,VWS V14.01,2013-06-25 06:41:00,
2013-06-25 01:46:00,73.7,72.2,30.02,SSW,205,0.0,0.0,95,0.00,,---,0.00,VWS V14.01,2013-06-25 06:46:00,
2013-06-25 01:51:00,73.6,72.1,30.02,SSW,205,0.0,0.0,95,0.00,,---,0.00,VWS V14.01,2013-06-25 06:51:00,
2013-06-25 01:56:00,73.5,72.0,30.02,SSW,205,0.0,0.0,95,0.00,,---,0.00,VWS V14.01,2013-06-25 06:56:00,
2013-06-25 02:01:00,73.4,71.9,30.02,SSW,205,0.0,0.0,95,0.00,,---,0.00,VWS V14.01,2013-06-25 07:01:00,
2013-06-25 02:06:00,73.4,71.9,30.02,SSW,205,0.0,0.0,95,0.00,,---,0.00,VWS V14.01,2013-06-25 07:06:00,
2013-06-25 02:11:00,73.4,71.9,30.02,SSW,205,0.0,0.0,95,0.00,,---,0.00,VWS V14.01,2013-06-25 07:11:00,
2013-06-25 02:16:00,73.4,71.9,30.01,SSW,205,0.0,0.0,95,0.00,,---,0.00,VWS V14.01,2013-06-25 07:16:00,
2013-06-25 02:21:00,73.4,71.9,30.02,SSW,205,0.0,0.0,95,0.00,,---,0.00,VWS V14.01,2013-06-25 07:21:00,
2013-06-25 02:26:00,73.4,71.9,30.02,SSW,205,0.0,0.0,95,0.00,,---,0.00,VWS V14.01,2013-06-25 07:26:00,
2013-06-25 02:31:00,73.5,72.3,30.01,SSW,205,0.0,0.0,96,0.00,,---,0.00,VWS V14.01,2013-06-25 07:31:00,
2013-06-25 02:36:00,73.6,72.4,30.01,SSW,205,0.0,0.0,96,0.00,,---,0.00,VWS V14.01,2013-06-25 07:36:00,
2013-06-25 02:41:00,73.7,72.5,30.01,SSW,205,0.0,0.0,96,0.00,,---,0.00,VWS V14.01,2013-06-25 07:41:00,
2013-06-25 02:46:00,73.7,72.5,30.01,SSW,205,0.0,0.0,96,0.00,,---,0.00,VWS V14.01,2013-06-25 07:46:00,
2013-06-25 02:51:00,73.6,72.4,30.01,SSW,205,0.0,0.0,96,0.00,,---,0.00,VWS V14.01,2013-06-25 07:51:00,
2013-06-25 02:56:00,73.5,72.3,30.01,SSW,205,0.0,0.0,96,0.00,,---,0.00,VWS V14.01,2013-06-25 07:56:00,
2013-06-25 03:01:00,73.5,72.0,30.01,SSW,205,0.0,0.0,95,0.00,,---,0.00,VWS V14.01,2013-06-25 08:01:00,
2013-06-25 03:06:00,73.5,72.3,30.00,SSW,205,0.0,0.0,96,0.00,,---,0.00,VWS V14.01,2013-06-25 08:06:00,
2013-06-25 03:11:00,73.5,72.0,30.00,SSW,205,0.0,0.0,95,0.00,,---,0.00,VWS V14.01,2013-06-25 08:11:00,
2013-06-25 03:16:00,73.4,71.9,30.01,SSW,205,0.0,0.0,95,0.00,,---,0.00,VWS V14.01,2013-06-25 08:16:00,
2013-06-25 03:21:00,73.3,71.8,30.00,SSW,205,0.0,0.0,95,0.00,,---,0.00,VWS V14.01,2013-06-25 08:21:00,
2013-06-25 03:26:00,73.3,71.8,30.00,SSW,205,0.0,0.0,95,0.00,,---,0.00,VWS V14.01,2013-06-25 08:26:00,
2013-06-25 03:31:00,73.2,72.0,30.00,SSW,205,0.0,0.0,96,0.00,,---,0.00,VWS V14.01,2013-06-25 08:31:00,
2013-06-25 03:36:00,73.1,71.6,30.00,SSW,205,0.0,0.0,95,0.00,,---,0.00,VWS V14.01,2013-06-25 08:36:00,
2013-06-25 03:41:00,72.9,71.4,30.00,SSW,205,0.0,0.0,95,0.00,,---,0.00,VWS V14.01,2013-06-25 08:41:00,
2013-06-25 03:46:00,72.9,71.4,30.00,SSW,205,0.0,0.0,95,0.00,,---,0.00,VWS V14.01,2013-06-25 08:46:00,
2013-06-25 03:51:00,72.9,71.7,30.00,SSW,205,0.0,0.0,96,0.00,,---,0.00,VWS V14.01,2013-06-25 08:51:00,
2013-06-25 03:56:00,73.1,71.9,30.00,SSW,205,0.0,0.0,96,0.00,,---,0.00,VWS V14.01,2013-06-25 08:56:00,
2013-06-25 04:01:00,73.1,71.9,30.00,SSW,205,0.0,0.0,96,0.00,,---,0.00,VWS V14.01,2013-06-25 09:01:00,
2013-06-25 04:06:00,73.1,71.9,30.00,SSW,205,0.0,0.0,96,0.00,,---,0.00,VWS V14.01,2013-06-25 09:06:00,
2013-06-25 04:11:00,73.1,71.9,30.00,SSW,205,0.0,0.0,96,0.00,,---,0.00,VWS V14.01,2013-06-25 09:11:00,
2013-06-25 04:16:00,73.0,71.8,30.00,SSW,205,0.0,0.0,96,0.00,,---,0.00,VWS V14.01,2013-06-25 09:16:00,
2013-06-25 04:21:00,72.9,71.7,30.00,SSW,205,0.0,0.0,96,0.00,,---,0.00,VWS V14.01,2013-06-25 09:21:00,
2013-06-25 04:26:00,72.8,71.3,30.01,SSW,205,0.0,0.0,95,0.00,,---,0.00,VWS V14.01,2013-06-25 09:26:00,
2013-06-25 04:31:00,72.7,71.5,30.01,SSW,205,0.0,0.0,96,0.00,,---,0.00,VWS V14.01,2013-06-25 09:31:00,
2013-06-25 04:36:00,72.7,71.5,30.01,SSW,205,0.0,0.0,96,0.00,,---,0.00,VWS V14.01,2013-06-25 09:36:00,
2013-06-25 04:41:00,72.8,71.6,30.00,SSW,205,0.0,0.0,96,0.00,,---,0.00,VWS V14.01,2013-06-25 09:41:00,
2013-06-25 04:46:00,72.8,71.6,30.00,SSW,205,0.0,0.0,96,0.00,,---,0.00,VWS V14.01,2013-06-25 09:46:00,
2013-06-25 04:51:00,72.8,71.6,30.01,SSW,205,0.0,0.0,96,0.00,,---,0.00,VWS V14.01,2013-06-25 09:51:00,
2013-06-25 04:56:00,72.9,71.7,30.01,SSW,205,0.0,0.0,96,0.00,,---,0.00,VWS V14.01,2013-06-25 09:56:00,
2013-06-25 05:01:00,72.9,71.7,30.01,SSW,205,0.0,0.0,96,0.00,,---,0.00,VWS V14.01,2013-06-25 10:01:00,
2013-06-25 05:06:00,72.9,71.7,30.01,SSW,205,0.0,0.0,96,0.00,,---,0.00,VWS V14.01,2013-06-25 10:06:00,
2013-06-25 05:11:00,72.8,71.6,30.01,SSW,205,0.0,0.0,96,0.00,,---,0.00,VWS V14.01,2013-06-25 10:11:00,
2013-06-25 05:16:00,72.8,71.6,30.01,SSW,205,0.0,0.0,96,0.00,,---,0.00,VWS V14.01,2013-06-25 10:16:00,
2013-06-25 05:21:00,72.7,71.5,30.01,SSW,205,0.0,0.0,96,0.00,,---,0.00,VWS V14.01,2013-06-25 10:21:00,
2013-06-25 05:26:00,72.6,71.4,30.01,SSW,205,0.0,0.0,96,0.00,,---,0.00,VWS V14.01,2013-06-25 10:26:00,
2013-06-25 05:31:00,72.6,71.4,30.01,SSW,205,0.0,0.0,96,0.00,,---,0.00,VWS V14.01,2013-06-25 10:31:00,
2013-06-25 05:36:00,72.6,71.4,30.01,SSW,205,0.0,0.0,96,0.00,,---,0.00,VWS V14.01,2013-06-25 10:36:00,
2013-06-25 05:41:00,72.6,71.4,30.01,SSW,205,0.0,0.0,96,0.00,,---,0.00,VWS V14.01,2013-06-25 10:41:00,
2013-06-25 05:46:00,72.6,71.4,30.02,SSW,205,0.0,0.0,96,0.00,,---,0.00,VWS V14.01,2013-06-25 10:46:00,
2013-06-25 05:51:00,72.5,71.3,30.02,SSW,205,0.0,0.0,96,0.00,,---,0.00,VWS V14.01,2013-06-25 10:51:00,
2013-06-25 05:56:00,72.5,71.3,30.02,SSW,205,0.0,0.0,96,0.00,,---,0.00,VWS V14.01,2013-06-25 10:56:00,
2013-06-25 06:01:00,72.4,71.2,30.02,SSW,205,0.0,0.0,96,0.00,,---,0.00,VWS V14.01,2013-06-25 11:01:00,
2013-06-25 06:06:00,72.4,71.2,30.02,SSW,205,0.0,0.0,96,0.00,,---,0.00,VWS V14.01,2013-06-25 11:06:00,
2013-06-25 06:11:00,72.3,71.1,30.02,SSW,205,0.0,0.0,96,0.00,,---,0.00,VWS V14.01,2013-06-25 11:11:00,
2013-06-25 06:16:00,72.3,71.1,30.03,SSW,205,0.0,0.0,96,0.00,,---,0.00,VWS V14.01,2013-06-25 11:16:00,
2013-06-25 06:21:00,72.3,71.1,30.03,SSW,205,0.0,0.0,96,0.00,,---,0.00,VWS V14.01,2013-06-25 11:21:00,
2013-06-25 06:26:00,72.4,71.2,30.03,SSW,205,0.0,0.0,96,0.00,,---,0.00,VWS V14.01,2013-06-25 11:26:00,
2013-06-25 06:31:00,72.5,71.3,30.03,SSW,205,0.0,0.0,96,0.00,,---,0.00,VWS V14.01,2013-06-25 11:31:00,
2013-06-25 06:36:00,72.7,71.5,30.03,SSW,205,0.0,0.0,96,0.00,,---,0.00,VWS V14.01,2013-06-25 11:36:00,
2013-06-25 06:41:00,73.0,72.1,30.03,SSW,205,0.0,0.0,97,0.00,,---,0.00,VWS V14.01,2013-06-25 11:41:00,
2013-06-25 06:46:00,73.4,72.5,30.03,SSW,205,0.0,0.0,97,0.00,,---,0.00,VWS V14.01,2013-06-25 11:46:00,
2013-06-25 06:51:00,74.1,73.2,30.03,SSW,205,0.0,0.0,97,0.01,,---,0.01,VWS V14.01,2013-06-25 11:51:00,
2013-06-25 06:56:00,74.4,73.5,30.03,SSW,205,0.0,0.0,97,0.01,,---,0.01,VWS V14.01,2013-06-25 11:56:00,
2013-06-25 07:01:00,74.6,73.7,30.04,SSW,205,0.0,0.0,97,0.01,,---,0.01,VWS V14.01,2013-06-25 12:01:00,
2013-06-25 07:06:00,75.1,74.2,30.04,SSW,205,0.0,0.0,97,0.01,,---,0.01,VWS V14.01,2013-06-25 12:06:00,
2013-06-25 07:11:00,75.6,74.7,30.04,SSW,205,0.0,0.0,97,0.01,,---,0.01,VWS V14.01,2013-06-25 12:11:00,
2013-06-25 07:16:00,76.1,75.2,30.04,SSW,205,0.0,0.0,97,0.01,,---,0.01,VWS V14.01,2013-06-25 12:16:00,
2013-06-25 07:21:00,76.8,75.9,30.04,SSW,200,0.0,0.0,97,0.01,,---,0.01,VWS V14.01,2013-06-25 12:21:00,
2013-06-25 07:26:00,77.3,76.4,30.05,SSW,200,0.0,0.0,97,0.01,,---,0.01,VWS V14.01,2013-06-25 12:26:00,
2013-06-25 07:31:00,77.8,76.9,30.05,SSW,200,0.0,0.0,97,0.01,,---,0.01,VWS V14.01,2013-06-25 12:31:00,
2013-06-25 07:36:00,78.2,77.0,30.05,SSW,198,0.0,1.0,96,0.01,,---,0.01,VWS V14.01,2013-06-25 12:36:00,
2013-06-25 07:41:00,78.6,77.1,30.05,ENE,64,0.0,2.0,95,0.01,,---,0.01,VWS V14.01,2013-06-25 12:41:00,
2013-06-25 07:46:00,78.9,77.0,30.05,ENE,64,0.0,3.0,94,0.01,,---,0.01,VWS V14.01,2013-06-25 12:46:00,
2013-06-25 07:51:00,79.5,77.3,30.05,ENE,64,0.0,3.0,93,0.01,,---,0.01,VWS V14.01,2013-06-25 12:51:00,
2013-06-25 07:56:00,80.2,77.7,30.05,ENE,64,0.0,3.0,92,0.01,,---,0.01,VWS V14.01,2013-06-25 12:56:00,
2013-06-25 08:01:00,81.0,77.8,30.05,ENE,64,0.0,0.0,90,0.00,,---,0.01,VWS V14.01,2013-06-25 13:01:00,
2013-06-25 08:06:00,81.8,78.2,30.05,ENE,64,0.0,1.0,89,0.00,,---,0.01,VWS V14.01,2013-06-25 13:06:00,
2013-06-25 08:11:00,82.6,78.0,30.05,ENE,64,0.0,1.0,86,0.00,,---,0.01,VWS V14.01,2013-06-25 13:11:00,
2013-06-25 08:16:00,83.2,77.9,30.05,ENE,64,0.0,2.0,84,0.00,,---,0.01,VWS V14.01,2013-06-25 13:16:00,
2013-06-25 08:21:00,83.6,77.9,30.05,ENE,64,0.0,2.0,83,0.00,,---,0.01,VWS V14.01,2013-06-25 13:21:00,
2013-06-25 08:26:00,83.9,77.4,30.05,ENE,65,0.0,2.0,81,0.00,,---,0.01,VWS V14.01,2013-06-25 13:26:00,
2013-06-25 08:31:00,83.8,77.0,30.05,East,88,0.0,2.0,80,0.00,,---,0.01,VWS V14.01,2013-06-25 13:31:00,
2013-06-25 08:36:00,83.9,77.1,30.05,East,90,2.0,2.0,80,0.00,,---,0.01,VWS V14.01,2013-06-25 13:36:00,
2013-06-25 08:41:00,84.2,77.0,30.05,East,90,2.0,3.0,79,0.00,,---,0.01,VWS V14.01,2013-06-25 13:41:00,
2013-06-25 08:46:00,84.4,77.2,30.05,SE,132,0.0,3.0,79,0.00,,---,0.01,VWS V14.01,2013-06-25 13:46:00,
2013-06-25 08:51:00,84.8,77.9,30.05,SE,132,0.0,3.0,80,0.00,,---,0.01,VWS V14.01,2013-06-25 13:51:00,
2013-06-25 08:56:00,85.2,77.6,30.05,ESE,112,0.0,3.0,78,0.00,,---,0.01,VWS V14.01,2013-06-25 13:56:00,
2013-06-25 09:01:00,85.5,77.1,30.05,SE,138,0.0,1.0,76,0.00,,---,0.01,VWS V14.01,2013-06-25 14:01:00,
2013-06-25 09:06:00,85.6,76.4,30.05,ESE,111,3.0,4.0,74,0.00,,---,0.01,VWS V14.01,2013-06-25 14:06:00,
2013-06-25 09:11:00,85.7,76.9,30.05,East,93,4.0,4.0,75,0.00,,---,0.01,VWS V14.01,2013-06-25 14:11:00,
2013-06-25 09:16:00,85.4,77.0,30.05,East,79,3.0,5.0,76,0.00,,---,0.01,VWS V14.01,2013-06-25 14:16:00,
2013-06-25 09:21:00,85.3,76.5,30.05,ENE,77,0.0,5.0,75,0.00,,---,0.01,VWS V14.01,2013-06-25 14:21:00,
2013-06-25 09:26:00,85.4,76.2,30.05,SSE,162,0.0,5.0,74,0.00,,---,0.01,VWS V14.01,2013-06-25 14:26:00,
2013-06-25 09:31:00,85.9,76.7,30.05,SSE,162,0.0,1.0,74,0.00,,---,0.01,VWS V14.01,2013-06-25 14:31:00,
2013-06-25 09:36:00,86.5,76.4,30.05,SSE,162,0.0,1.0,72,0.00,,---,0.01,VWS V14.01,2013-06-25 14:36:00,
2013-06-25 09:41:00,87.0,76.9,30.04,SSE,162,0.0,3.0,72,0.00,,---,0.01,VWS V14.01,2013-06-25 14:41:00,
2013-06-25 09:46:00,87.1,76.1,30.05,SE,144,3.0,5.0,70,0.00,,---,0.01,VWS V14.01,2013-06-25 14:46:00,
2013-06-25 09:51:00,86.8,76.3,30.05,SSW,193,3.0,5.0,71,0.00,,---,0.01,VWS V14.01,2013-06-25 14:51:00,
2013-06-25 09:56:00,86.4,76.3,30.04,South,191,0.0,6.0,72,0.00,,---,0.01,VWS V14.01,2013-06-25 14:56:00,
2013-06-25 10:01:00,86.3,76.2,30.04,South,179,6.0,6.0,72,0.00,,---,0.01,VWS V14.01,2013-06-25 15:01:00,
2013-06-25 10:06:00,86.1,76.4,30.04,SSW,192,0.0,6.0,73,0.00,,---,0.01,VWS V14.01,2013-06-25 15:06:00,
2013-06-25 10:11:00,85.7,76.5,30.05,SSW,192,0.0,6.0,74,0.00,,---,0.01,VWS V14.01,2013-06-25 15:11:00,
2013-06-25 10:16:00,85.4,76.2,30.04,SSE,162,4.0,6.0,74,0.00,,---,0.01,VWS V14.01,2013-06-25 15:16:00,
2013-06-25 10:21:00,85.3,76.9,30.04,South,171,0.0,6.0,76,0.00,,---,0.01,VWS V14.01,2013-06-25 15:21:00,
2013-06-25 10:26:00,85.7,76.5,30.04,SSE,164,0.0,6.0,74,0.00,,---,0.01,VWS V14.01,2013-06-25 15:26:00,
2013-06-25 10:31:00,86.2,75.3,30.04,SSE,165,0.0,7.0,70,0.00,,---,0.01,VWS V14.01,2013-06-25 15:31:00,
2013-06-25 10:36:00,86.3,76.2,30.04,SSW,192,4.0,9.0,72,0.00,,---,0.01,VWS V14.01,2013-06-25 15:36:00,
2013-06-25 10:41:00,86.1,74.8,30.04,SSE,153,4.0,10.0,69,0.00,,---,0.01,VWS V14.01,2013-06-25 15:41:00,
2013-06-25 10:46:00,85.8,74.9,30.04,SSE,162,0.0,10.0,70,0.00,,---,0.01,VWS V14.01,2013-06-25 15:46:00,
2013-06-25 10:51:00,86.1,75.6,30.04,South,189,0.0,10.0,71,0.00,,---,0.01,VWS V14.01,2013-06-25 15:51:00,
2013-06-25 10:56:00,86.3,75.4,30.04,WSW,240,0.0,10.0,70,0.00,,---,0.01,VWS V14.01,2013-06-25 15:56:00,
2013-06-25 11:01:00,86.3,75.8,30.04,SSW,193,1.0,6.0,71,0.00,,---,0.01,VWS V14.01,2013-06-25 16:01:00,
2013-06-25 11:06:00,86.3,75.4,30.04,South,173,0.0,9.0,70,0.00,,---,0.01,VWS V14.01,2013-06-25 16:06:00,
2013-06-25 11:11:00,86.3,76.2,30.04,South,171,2.0,9.0,72,0.00,,---,0.01,VWS V14.01,2013-06-25 16:11:00,
2013-06-25 11:16:00,86.2,76.1,30.04,SE,140,8.0,10.0,72,0.00,,---,0.01,VWS V14.01,2013-06-25 16:16:00,
2013-06-25 11:21:00,86.2,76.5,30.04,South,187,1.0,10.0,73,0.00,,---,0.01,VWS V14.01,2013-06-25 16:21:00,
2013-06-25 11:26:00,86.5,77.2,30.04,SW,232,2.0,14.0,74,0.00,,---,0.01,VWS V14.01,2013-06-25 16:26:00,
2013-06-25 11:31:00,87.0,76.5,30.04,SSE,167,5.0,6.0,71,0.00,,---,0.01,VWS V14.01,2013-06-25 16:31:00,
2013-06-25 11:36:00,86.8,75.8,30.04,WSW,252,5.0,12.0,70,0.00,,---,0.01,VWS V14.01,2013-06-25 16:36:00,
2013-06-25 11:41:00,86.6,77.3,30.05,WSW,237,4.0,12.0,74,0.00,,---,0.01,VWS V14.01,2013-06-25 16:41:00,
2013-06-25 11:46:00,86.5,77.2,30.04,SSW,192,2.0,12.0,74,0.00,,---,0.01,VWS V14.01,2013-06-25 16:46:00,
2013-06-25 11:51:00,86.4,75.9,30.04,SSW,195,3.0,12.0,71,0.00,,---,0.01,VWS V14.01,2013-06-25 16:51:00,
2013-06-25 11:56:00,86.3,77.0,30.04,SW,234,0.0,12.0,74,0.00,,---,0.01,VWS V14.01,2013-06-25 16:56:00,
2013-06-25 12:01:00,86.5,76.8,30.04,WSW,250,1.0,6.0,73,0.00,,---,0.01,VWS V14.01,2013-06-25 17:01:00,
2013-06-25 12:06:00,86.6,76.9,30.04,SW,221,6.0,10.0,73,0.00,,---,0.01,VWS V14.01,2013-06-25 17:06:00,
2013-06-25 12:11:00,86.8,75.8,30.04,SSW,198,5.0,10.0,70,0.00,,---,0.01,VWS V14.01,2013-06-25 17:11:00,
2013-06-25 12:16:00,86.9,76.8,30.03,South,176,4.0,12.0,72,0.00,,---,0.01,VWS V14.01,2013-06-25 17:16:00,
2013-06-25 12:21:00,86.9,77.2,30.03,SSW,198,6.0,12.0,73,0.00,,---,0.01,VWS V14.01,2013-06-25 17:21:00,
2013-06-25 12:26:00,86.9,76.4,30.03,SSE,161,2.0,12.0,71,0.00,,---,0.01,VWS V14.01,2013-06-25 17:26:00,
2013-06-25 12:31:00,86.8,76.3,30.03,SW,223,1.0,9.0,71,0.00,,---,0.01,VWS V14.01,2013-06-25 17:31:00,
2013-06-25 12:36:00,86.9,76.8,30.03,SSW,213,4.0,11.0,72,0.00,,---,0.01,VWS V14.01,2013-06-25 17:36:00,
2013-06-25 12:41:00,86.8,75.8,30.03,SW,219,4.0,11.0,70,0.00,,---,0.01,VWS V14.01,2013-06-25 17:41:00,
2013-06-25 12:46:00,86.8,75.8,30.03,SSW,207,4.0,12.0,70,0.00,,---,0.01,VWS V14.01,2013-06-25 17:46:00,
2013-06-25 12:51:00,86.8,76.7,30.02,SSW,211,6.0,12.0,72,0.00,,---,0.01,VWS V14.01,2013-06-25 17:51:00,
2013-06-25 12:56:00,86.8,76.3,30.02,SW,232,11.0,12.0,71,0.00,,---,0.01,VWS V14.01,2013-06-25 17:56:00,
2013-06-25 13:01:00,86.9,75.9,30.02,SW,223,5.0,9.0,70,0.00,,---,0.01,VWS V14.01,2013-06-25 18:01:00,
2013-06-25 13:06:00,87.0,75.6,30.02,SSW,195,3.0,11.0,69,0.00,,---,0.01,VWS V14.01,2013-06-25 18:06:00,
2013-06-25 13:11:00,87.1,76.6,30.01,South,181,3.0,12.0,71,0.00,,---,0.01,VWS V14.01,2013-06-25 18:11:00,
2013-06-25 13:16:00,87.2,75.8,30.02,South,178,3.0,12.0,69,0.00,,---,0.01,VWS V14.01,2013-06-25 18:16:00,
2013-06-25 13:21:00,87.3,76.3,30.02,SW,226,7.0,12.0,70,0.00,,---,0.01,VWS V14.01,2013-06-25 18:21:00,
2013-06-25 13:26:00,87.2,75.4,30.02,SW,217,0.0,12.0,68,0.00,,---,0.01,VWS V14.01,2013-06-25 18:26:00,
2013-06-25 13:31:00,87.3,75.9,30.02,SSW,196,2.0,12.0,69,0.00,,---,0.01,VWS V14.01,2013-06-25 18:31:00,
2013-06-25 13:36:00,87.2,75.8,30.02,South,176,8.0,12.0,69,0.00,,---,0.01,VWS V14.01,2013-06-25 18:36:00,
2013-06-25 13:41:00,86.6,75.7,30.02,SW,222,0.0,12.0,70,0.00,,---,0.01,VWS V14.01,2013-06-25 18:41:00,
2013-06-25 13:45:00,86.4,76.3,30.02,SSW,208,5.0,12.0,72,0.00,,---,0.01,VWS V14.01,2013-06-25 18:45:00,
2013-06-25 13:50:00,86.3,77.4,30.02,WSW,243,5.0,12.0,75,0.00,,---,0.01,VWS V14.01,2013-06-25 18:50:00,
2013-06-25 13:55:00,86.4,76.7,30.02,SW,214,2.0,12.0,73,0.00,,---,0.01,VWS V14.01,2013-06-25 18:55:00,
2013-06-25 14:01:00,86.5,76.8,30.02,South,174,5.0,10.0,73,0.00,,---,0.01,VWS V14.01,2013-06-25 19:01:00,
2013-06-25 14:06:00,86.5,76.8,30.01,SW,233,4.0,10.0,73,0.00,,---,0.01,VWS V14.01,2013-06-25 19:06:00,
2013-06-25 14:11:00,86.5,77.2,30.01,SW,217,2.0,10.0,74,0.00,,---,0.01,VWS V14.01,2013-06-25 19:11:00,
2013-06-25 14:15:00,86.5,76.4,30.01,SSW,194,0.0,11.0,72,0.00,,---,0.01,VWS V14.01,2013-06-25 19:15:00,
2013-06-25 14:20:00,86.7,77.8,30.01,SE,124,0.0,11.0,75,0.00,,---,0.01,VWS V14.01,2013-06-25 19:20:00,
2013-06-25 14:25:00,86.6,76.9,30.01,SSE,153,7.0,12.0,73,0.00,,---,0.01,VWS V14.01,2013-06-25 19:25:00,
2013-06-25 14:30:00,86.3,77.4,30.01,South,187,1.0,7.0,75,0.00,,---,0.01,VWS V14.01,2013-06-25 19:30:00,
2013-06-25 14:35:00,86.3,76.6,30.00,South,173,3.0,9.0,73,0.00,,---,0.01,VWS V14.01,2013-06-25 19:35:00,
2013-06-25 14:40:00,86.3,77.0,30.00,SW,217,1.0,9.0,74,0.00,,---,0.01,VWS V14.01,2013-06-25 19:40:00,
2013-06-25 14:45:00,86.5,76.8,30.00,SW,221,5.0,10.0,73,0.00,,---,0.01,VWS V14.01,2013-06-25 19:45:00,
2013-06-25 14:50:00,86.9,76.8,29.99,South,171,1.0,10.0,72,0.00,,---,0.01,VWS V14.01,2013-06-25 19:50:00,
2013-06-25 14:55:00,87.2,77.5,29.99,SW,220,0.0,10.0,73,0.00,,---,0.01,VWS V14.01,2013-06-25 19:55:00,
2013-06-25 15:00:00,87.4,77.3,29.99,SW,227,4.0,10.0,72,0.00,,---,0.01,VWS V14.01,2013-06-25 20:00:00,
2013-06-25 15:05:00,87.3,76.8,29.99,SSW,196,3.0,10.0,71,0.00,,---,0.01,VWS V14.01,2013-06-25 20:05:00,
2013-06-25 15:10:00,87.2,76.7,29.99,SW,224,3.0,10.0,71,0.00,,---,0.01,VWS V14.01,2013-06-25 20:10:00,
2013-06-25 15:15:00,87.2,77.1,29.99,WSW,247,4.0,10.0,72,0.00,,---,0.01,VWS V14.01,2013-06-25 20:15:00,
2013-06-25 15:20:00,86.9,75.9,29.99,SSW,192,1.0,10.0,70,0.00,,---,0.01,VWS V14.01,2013-06-25 20:20:00,
2013-06-25 15:25:00,86.6,76.5,29.98,SW,228,4.0,10.0,72,0.00,,---,0.01,VWS V14.01,2013-06-25 20:25:00,
2013-06-25 15:30:00,86.9,77.6,29.99,SSW,203,3.0,4.0,74,0.00,,---,0.01,VWS V14.01,2013-06-25 20:30:00,
2013-06-25 15:35:00,87.0,76.5,29.99,SSE,168,5.0,12.0,71,0.00,,---,0.01,VWS V14.01,2013-06-25 20:35:00,
2013-06-25 15:40:00,87.1,77.0,29.98,SW,214,6.0,12.0,72,0.00,,---,0.01,VWS V14.01,2013-06-25 20:40:00,
2013-06-25 15:45:00,87.0,76.0,29.98,South,188,6.0,12.0,70,0.00,,---,0.01,VWS V14.01,2013-06-25 20:45:00,
2013-06-25 15:50:00,86.9,76.4,29.98,SE,140,4.0,12.0,71,0.00,,---,0.01,VWS V14.01,2013-06-25 20:50:00,
2013-06-25 15:55:00,86.7,76.6,29.98,SSE,150,2.0,12.0,72,0.00,,---,0.01,VWS V14.01,2013-06-25 20:55:00,
2013-06-25 16:00:00,86.7,76.6,29.98,SW,227,4.0,6.0,72,0.00,,---,0.01,VWS V14.01,2013-06-25 21:00:00,
2013-06-25 16:05:00,86.8,76.7,29.98,South,176,3.0,9.0,72,0.00,,---,0.01,VWS V14.01,2013-06-25 21:05:00,
2013-06-25 16:10:00,86.9,76.8,29.98,SW,229,3.0,9.0,72,0.00,,---,0.01,VWS V14.01,2013-06-25 21:10:00,
2013-06-25 16:15:00,86.8,77.1,29.98,West,266,2.0,9.0,73,0.00,,---,0.01,VWS V14.01,2013-06-25 21:15:00,
2013-06-25 16:20:00,86.9,76.8,29.98,WSW,240,2.0,9.0,72,0.00,,---,0.01,VWS V14.01,2013-06-25 21:20:00,
2013-06-25 16:25:00,86.9,76.8,29.98,SW,224,3.0,9.0,72,0.00,,---,0.01,VWS V14.01,2013-06-25 21:25:00,
2013-06-25 16:30:00,87.0,77.3,29.98,WSW,240,3.0,6.0,73,0.00,,---,0.01,VWS V14.01,2013-06-25 21:30:00,
2013-06-25 16:35:00,87.0,76.9,29.97,SW,229,5.0,9.0,72,0.00,,---,0.01,VWS V14.01,2013-06-25 21:35:00,
2013-06-25 16:40:00,86.8,76.7,29.97,SW,223,6.0,9.0,72,0.00,,---,0.01,VWS V14.01,2013-06-25 21:40:00,
2013-06-25 16:45:00,86.7,75.8,29.97,SW,221,1.0,10.0,70,0.00,,---,0.01,VWS V14.01,2013-06-25 21:45:00,
2013-06-25 16:50:00,86.8,76.7,29.97,WSW,238,0.0,10.0,72,0.00,,---,0.01,VWS V14.01,2013-06-25 21:50:00,
2013-06-25 16:55:00,86.8,76.3,29.97,South,171,11.0,11.0,71,0.00,,---,0.01,VWS V14.01,2013-06-25 21:55:00,
2013-06-25 17:00:00,86.7,76.2,29.97,SW,221,1.0,5.0,71,0.00,,---,0.01,VWS V14.01,2013-06-25 22:00:00,
2013-06-25 17:05:00,86.5,76.0,29.97,SSW,202,5.0,10.0,71,0.00,,---,0.01,VWS V14.01,2013-06-25 22:05:00,
2013-06-25 17:10:00,86.4,76.3,29.96,SSW,198,3.0,10.0,72,0.00,,---,0.01,VWS V14.01,2013-06-25 22:10:00,
2013-06-25 17:15:00,86.5,77.2,29.96,SW,215,2.0,10.0,74,0.00,,---,0.01,VWS V14.01,2013-06-25 22:15:00,
2013-06-25 17:20:00,86.4,77.1,29.96,SSW,202,4.0,12.0,74,0.00,,---,0.01,VWS V14.01,2013-06-25 22:20:00,
2013-06-25 17:25:00,86.1,77.2,29.96,WSW,252,3.0,12.0,75,0.00,,---,0.01,VWS V14.01,2013-06-25 22:25:00,
2013-06-25 17:30:00,85.8,77.0,29.96,SW,227,1.0,7.0,75,0.00,,---,0.01,VWS V14.01,2013-06-25 22:30:00,
2013-06-25 17:35:00,85.9,77.5,29.96,South,178,4.0,8.0,76,0.00,,---,0.01,VWS V14.01,2013-06-25 22:35:00,
2013-06-25 17:40:00,86.0,77.2,29.95,SSW,192,6.0,9.0,75,0.00,,---,0.01,VWS V14.01,2013-06-25 22:40:00,
2013-06-25 17:45:00,85.9,76.7,29.96,SW,214,1.0,10.0,74,0.00,,---,0.01,VWS V14.01,2013-06-25 22:45:00,
2013-06-25 17:50:00,85.9,76.7,29.95,SW,228,5.0,10.0,74,0.00,,---,0.01,VWS V14.01,2013-06-25 22:50:00,
2013-06-25 17:55:00,86.0,76.8,29.96,SW,233,6.0,10.0,74,0.00,,---,0.01,VWS V14.01,2013-06-25 22:55:00,
2013-06-25 18:00:00,85.9,76.7,29.96,SW,214,0.0,4.0,74,0.00,,---,0.01,VWS V14.01,2013-06-25 23:00:00,
2013-06-25 18:05:00,85.9,77.1,29.96,SW,230,1.0,9.0,75,0.00,,---,0.01,VWS V14.01,2013-06-25 23:05:00,
2013-06-25 18:10:00,85.8,77.4,29.96,SW,232,1.0,9.0,76,0.00,,---,0.01,VWS V14.01,2013-06-25 23:10:00,
2013-06-25 18:15:00,85.6,77.2,29.96,SSW,211,6.0,10.0,76,0.00,,---,0.01,VWS V14.01,2013-06-25 23:15:00,
2013-06-25 18:20:00,85.6,77.2,29.96,SW,219,0.0,10.0,76,0.00,,---,0.01,VWS V14.01,2013-06-25 23:20:00,
2013-06-25 18:25:00,85.5,77.5,29.95,SW,221,0.0,10.0,77,0.00,,---,0.01,VWS V14.01,2013-06-25 23:25:00,
2013-06-25 18:30:00,85.5,77.5,29.95,SW,217,0.0,4.0,77,0.00,,---,0.01,VWS V14.01,2013-06-25 23:30:00,
2013-06-25 18:35:00,85.5,77.1,29.95,South,186,0.0,10.0,76,0.00,,---,0.01,VWS V14.01,2013-06-25 23:35:00,
2013-06-25 18:40:00,85.3,77.3,29.95,SSW,199,1.0,10.0,77,0.00,,---,0.01,VWS V14.01,2013-06-25 23:40:00,
2013-06-25 18:45:00,85.1,77.1,29.96,SW,220,1.0,10.0,77,0.00,,---,0.01,VWS V14.01,2013-06-25 23:45:00,
2013-06-25 18:50:00,85.1,77.1,29.96,SW,220,0.0,10.0,77,0.00,,---,0.01,VWS V14.01,2013-06-25 23:50:00,
2013-06-25 18:55:00,85.1,77.5,29.96,SW,219,0.0,10.0,78,0.00,,---,0.01,VWS V14.01,2013-06-25 23:55:00,
2013-06-25 19:00:00,85.0,77.0,29.96,SW,217,0.0,4.0,77,0.00,,---,0.01,VWS V14.01,2013-06-26 00:00:00,
2013-06-25 19:05:00,84.8,77.2,29.96,WSW,252,2.0,5.0,78,0.00,,---,0.01,VWS V14.01,2013-06-26 00:05:00,
2013-06-25 19:10:00,84.5,77.3,29.96,SSW,211,1.0,7.0,79,0.00,,---,0.01,VWS V14.01,2013-06-26 00:10:00,
2013-06-25 19:15:00,84.2,77.0,29.96,SSW,198,2.0,7.0,79,0.00,,---,0.01,VWS V14.01,2013-06-26 00:15:00,
2013-06-25 19:20:00,84.0,76.8,29.96,SSW,201,0.0,7.0,79,0.00,,---,0.01,VWS V14.01,2013-06-26 00:20:00,
2013-06-25 19:25:00,83.6,76.4,29.96,SSW,211,0.0,7.0,79,0.00,,---,0.01,VWS V14.01,2013-06-26 00:25:00,
2013-06-25 19:30:00,83.3,76.5,29.96,SSW,203,0.0,2.0,80,0.00,,---,0.01,VWS V14.01,2013-06-26 00:30:00,
2013-06-25 19:35:00,83.1,76.7,29.96,SSW,203,0.0,2.0,81,0.00,,---,0.01,VWS V14.01,2013-06-26 00:35:00,
2013-06-25 19:40:00,82.9,76.5,29.96,SSW,203,0.0,2.0,81,0.00,,---,0.01,VWS V14.01,2013-06-26 00:40:00,
2013-06-25 19:45:00,82.5,76.1,29.96,SSW,203,0.0,2.0,81,0.00,,---,0.01,VWS V14.01,2013-06-26 00:45:00,
2013-06-25 19:50:00,82.3,76.3,29.96,SSW,203,0.0,2.0,82,0.00,,---,0.01,VWS V14.01,2013-06-26 00:50:00,
2013-06-25 19:55:00,82.0,76.3,29.96,SSW,203,0.0,2.0,83,0.00,,---,0.01,VWS V14.01,2013-06-26 00:55:00,
2013-06-25 20:00:00,81.7,76.0,29.96,SSW,203,0.0,1.0,83,0.00,,---,0.01,VWS V14.01,2013-06-26 01:00:00,
2013-06-25 20:05:00,81.3,75.7,29.96,SSW,203,0.0,1.0,83,0.00,,---,0.01,VWS V14.01,2013-06-26 01:05:00,
2013-06-25 20:10:00,80.9,75.6,29.95,SSW,203,0.0,1.0,84,0.00,,---,0.01,VWS V14.01,2013-06-26 01:10:00,
2013-06-25 20:15:00,80.6,75.7,29.95,SSW,203,0.0,3.0,85,0.00,,---,0.01,VWS V14.01,2013-06-26 01:15:00,
2013-06-25 20:20:00,80.4,75.5,29.95,SSW,203,0.0,3.0,85,0.00,,---,0.01,VWS V14.01,2013-06-26 01:20:00,
2013-06-25 20:25:00,80.2,75.6,29.95,SSW,203,0.0,3.0,86,0.00,,---,0.01,VWS V14.01,2013-06-26 01:25:00,
2013-06-25 20:30:00,80.0,75.4,29.95,SSW,203,0.0,0.0,86,0.00,,---,0.01,VWS V14.01,2013-06-26 01:30:00,
2013-06-25 20:35:00,79.8,75.2,29.95,SSW,203,0.0,0.0,86,0.00,,---,0.01,VWS V14.01,2013-06-26 01:35:00,
2013-06-25 20:40:00,79.6,75.1,29.95,SSW,203,0.0,1.0,86,0.00,,---,0.01,VWS V14.01,2013-06-26 01:40:00,
2013-06-25 20:45:00,79.4,75.2,29.95,SSW,203,0.0,1.0,87,0.00,,---,0.01,VWS V14.01,2013-06-26 01:45:00,
2013-06-25 20:50:00,79.3,75.1,29.95,SSW,203,0.0,1.0,87,0.00,,---,0.01,VWS V14.01,2013-06-26 01:50:00,
2013-06-25 20:55:00,79.1,74.9,29.96,SSW,203,0.0,1.0,87,0.00,,---,0.01,VWS V14.01,2013-06-26 01:55:00,
2013-06-25 21:00:00,78.9,75.1,29.96,SSW,203,0.0,0.0,88,0.00,,---,0.01,VWS V14.01,2013-06-26 02:00:00,
2013-06-25 21:05:00,78.8,74.9,29.96,SSW,203,0.0,0.0,88,0.00,,---,0.01,VWS V14.01,2013-06-26 02:05:00,
2013-06-25 21:10:00,78.7,74.8,29.96,SSW,203,0.0,0.0,88,0.00,,---,0.01,VWS V14.01,2013-06-26 02:10:00,
2013-06-25 21:15:00,78.6,74.8,29.97,SSW,203,0.0,0.0,88,0.00,,---,0.01,VWS V14.01,2013-06-26 02:15:00,
2013-06-25 21:20:00,78.5,74.7,29.97,SSW,203,0.0,0.0,88,0.00,,---,0.01,VWS V14.01,2013-06-26 02:20:00,
2013-06-25 21:25:00,78.4,74.9,29.97,SSW,203,0.0,0.0,89,0.00,,---,0.01,VWS V14.01,2013-06-26 02:25:00,
2013-06-25 21:30:00,78.4,74.9,29.98,SSW,203,0.0,0.0,89,0.00,,---,0.01,VWS V14.01,2013-06-26 02:30:00,
2013-06-25 21:35:00,78.3,74.8,29.98,SSW,203,0.0,0.0,89,0.00,,---,0.01,VWS V14.01,2013-06-26 02:35:00,
2013-06-25 21:40:00,78.2,74.7,29.98,SSW,203,0.0,0.0,89,0.00,,---,0.01,VWS V14.01,2013-06-26 02:40:00,
2013-06-25 21:45:00,78.1,74.6,29.98,SSW,203,0.0,0.0,89,0.00,,---,0.01,VWS V14.01,2013-06-26 02:45:00,
2013-06-25 21:50:00,78.0,74.8,29.98,SSW,203,0.0,0.0,90,0.00,,---,0.01,VWS V14.01,2013-06-26 02:50:00,
2013-06-25 21:55:00,78.0,74.8,29.99,SSW,203,0.0,0.0,90,0.00,,---,0.01,VWS V14.01,2013-06-26 02:55:00,
2013-06-25 22:00:00,77.9,74.7,29.98,SSW,203,0.0,0.0,90,0.00,,---,0.01,VWS V14.01,2013-06-26 03:00:00,
2013-06-25 22:05:00,77.8,74.6,29.98,SSW,203,0.0,0.0,90,0.00,,---,0.01,VWS V14.01,2013-06-26 03:05:00,
2013-06-25 22:10:00,77.7,74.9,29.98,SSW,203,0.0,0.0,91,0.00,,---,0.01,VWS V14.01,2013-06-26 03:10:00,
2013-06-25 22:15:00,77.7,74.9,29.98,SSW,203,0.0,0.0,91,0.00,,---,0.01,VWS V14.01,2013-06-26 03:15:00,
2013-06-25 22:20:00,77.6,74.8,29.98,SSW,203,0.0,0.0,91,0.00,,---,0.01,VWS V14.01,2013-06-26 03:20:00,
2013-06-25 22:25:00,77.6,74.8,29.98,SSW,203,0.0,0.0,91,0.00,,---,0.01,VWS V14.01,2013-06-26 03:25:00,
2013-06-25 22:30:00,77.7,75.2,29.98,SSW,203,0.0,0.0,92,0.00,,---,0.01,VWS V14.01,2013-06-26 03:30:00,
2013-06-25 22:35:00,77.7,75.2,29.98,SSW,203,0.0,0.0,92,0.00,,---,0.01,VWS V14.01,2013-06-26 03:35:00,
2013-06-25 22:40:00,77.6,75.1,29.98,SSW,203,0.0,0.0,92,0.00,,---,0.01,VWS V14.01,2013-06-26 03:40:00,
2013-06-25 22:45:00,77.5,75.0,29.97,SSW,203,0.0,0.0,92,0.00,,---,0.01,VWS V14.01,2013-06-26 03:45:00,
2013-06-25 22:50:00,77.4,74.9,29.97,SSW,203,0.0,0.0,92,0.00,,---,0.01,VWS V14.01,2013-06-26 03:50:00,
2013-06-25 22:55:00,77.3,74.8,29.97,SSW,203,0.0,0.0,92,0.00,,---,0.01,VWS V14.01,2013-06-26 03:55:00,
2013-06-25 23:00:00,77.3,74.8,29.97,SSW,203,0.0,0.0,92,0.00,,---,0.01,VWS V14.01,2013-06-26 04:00:00,
2013-06-25 23:01:00,77.3,74.8,29.97,SSW,203,0.0,0.0,92,0.00,,---,0.01,VWS V14.01,2013-06-26 04:01:00,
2013-06-25 23:06:00,77.2,74.7,29.97,SSW,203,0.0,0.0,92,0.00,,---,0.01,VWS V14.01,2013-06-26 04:06:00,
2013-06-25 23:11:00,77.1,74.6,29.97,SSW,203,0.0,0.0,92,0.00,,---,0.01,VWS V14.01,2013-06-26 04:11:00,
2013-06-25 23:16:00,77.1,74.6,29.97,SSW,203,0.0,0.0,92,0.00,,---,0.01,VWS V14.01,2013-06-26 04:16:00,
2013-06-25 23:21:00,77.0,74.5,29.97,SSW,203,0.0,0.0,92,0.00,,---,0.01,VWS V14.01,2013-06-26 04:21:00,
2013-06-25 23:26:00,76.9,74.4,29.97,SSW,203,0.0,0.0,92,0.00,,---,0.01,VWS V14.01,2013-06-26 04:26:00,
2013-06-25 23:31:00,76.9,74.4,29.96,SSW,203,0.0,0.0,92,0.00,,---,0.01,VWS V14.01,2013-06-26 04:31:00,
2013-06-25 23:36:00,76.8,74.3,29.96,SSW,203,0.0,0.0,92,0.00,,---,0.01,VWS V14.01,2013-06-26 04:36:00,
2013-06-25 23:41:00,76.7,74.2,29.96,SSW,203,0.0,0.0,92,0.00,,---,0.01,VWS V14.01,2013-06-26 04:41:00,
2013-06-25 23:46:00,76.7,74.5,29.96,SSW,203,0.0,0.0,93,0.00,,---,0.01,VWS V14.01,2013-06-26 04:46:00,
2013-06-25 23:51:00,76.6,74.4,29.96,SSW,203,0.0,0.0,93,0.00,,---,0.01,VWS V14.01,2013-06-26 04:51:00,
2013-06-25 23:56:00,76.6,74.4,29.96,SSW,203,0.0,0.0,93,0.00,,---,0.01,VWS V14.01,2013-06-26 04:56:00,